aviador You're here:

SADF Decoded Metar

SAN FERNANDO in ARGENTINA
Report Time2018-04-27 02:00:00
UTC Time2018-04-27 03:02:00
Flight Rules vfr VFR
Wind050° at 07 kt
W.Decomp.*RWY 05: 6.9 kt HW 1.0 kt RCW
W.Rank050° ranks 1
Current wind is above 050° avg. (6.4)
Visibility9999 m
Phenomena:N/A
Clouds:N/A
Expected CloudBase > 1,200 ft AGL from Temp-Dew spread
CeilingNone
Temp24°C (ISA +9)
Dew Point21°C (83% RH)
QNH1012 hPa
Density Alt1,421 ft
Elevation13 ft
Report Wrong Elevation
Raw Report
METAR SADF 270200Z 05007KT CAVOK 24/21 Q1012=

Extra information for SADF:More info

Metar Taf Metar & Taf Last 4 Metars F.Rules Stats Wind Profile Meteogram Temp Stats Airport Information Weather charts Add Link Nearby VenuesMetar ALERT Operation Metar Decoded Social comments